Green Corner, Vermont
Current Conditions -  °F | °C
As of 10:55 AM on Thursday 27 Nov 2014 (Local Time) from KFSO Reporting Station
Overcast Overcast  
Wind Chill: 23°   Ceiling: 3100
Heat Index: 28°   Visibility: 10mi
Dew Point: 21°   Wind: 5mph
Humidity: 73%   Direction: 360°N
Pressure: 30.03"   Gusts: NA
Location:  44.9002°N, 73.1493°W
Report Text: KFSO 271555Z AUTO 36004KT 10SM OVC031 M02/M06 A3003 RMK AO2 T10201063
Loading
Personal Weather Stations






























Interactive Weather Map New forecast layout! Learn more

10-Day Weather Forecast

Advertisements
Track Severe Weather on mobile